Time;durP1;ratioP1;P1;durP2;ratioP2;P2;SDS_P1;SDS_P2;PMS_P1;PMS_P2;Temp;Humidity;BMP_temperature;BMP_pressure;BME280_temperature;BME280_humidity;BME280_pressure;Samples;Min_cycle;Max_cycle;Signal;HPM_P1;HPM_P2
2021/06/24 00:01:23;;;;;;;25.38;22.80;;;;;;;19.46;70.26;93828.84;5070148;28;20051;-45
2021/06/24 00:03:48;;;;;;;20.88;18.77;;;;;;;19.44;69.84;93828.72;5070091;28;20181;-45
2021/06/24 00:06:14;;;;;;;26.83;24.42;;;;;;;19.15;71.27;93830.88;5070039;28;20296;-46
2021/06/24 00:08:39;;;;;;;27.08;22.27;;;;;;;19.20;70.48;93838.97;5070140;28;20036;-47
2021/06/24 00:11:07;;;;;;;29.67;26.10;;;;;;;19.07;71.50;93847.13;5069909;28;20028;-46
2021/06/24 00:13:33;;;;;;;24.17;22.17;;;;;;;19.08;70.82;93845.81;5068305;28;20464;-45
2021/06/24 00:15:58;;;;;;;26.15;23.48;;;;;;;19.09;70.72;93842.41;5068797;28;20028;-49
2021/06/24 00:18:24;;;;;;;23.67;21.08;;;;;;;18.93;71.13;93850.41;5079013;28;20020;-48
2021/06/24 00:20:50;;;;;;;28.35;21.75;;;;;;;18.86;71.38;93847.81;5089707;28;20117;-48
2021/06/24 00:23:16;;;;;;;27.15;24.90;;;;;;;18.93;71.31;93847.63;5089998;28;20023;-48
2021/06/24 00:25:42;;;;;;;26.38;24.35;;;;;;;18.89;71.38;93829.81;5090019;28;20076;-49
2021/06/24 00:28:10;;;;;;;27.92;25.58;;;;;;;18.97;71.35;93844.38;5089868;28;20020;-50
2021/06/24 00:30:37;;;;;;;28.83;26.00;;;;;;;19.01;71.62;93847.47;5090158;28;20333;-48
2021/06/24 00:33:02;;;;;;;26.98;24.73;;;;;;;18.96;71.57;93845.69;5089819;28;20511;-46
2021/06/24 00:35:28;;;;;;;31.15;27.95;;;;;;;19.03;71.78;93844.06;5089789;28;20024;-47
2021/06/24 00:37:53;;;;;;;31.08;28.15;;;;;;;18.97;71.91;93840.84;5090018;28;20016;-48
2021/06/24 00:40:19;;;;;;;32.30;29.38;;;;;;;18.68;73.11;93836.09;5090092;28;20441;-52
2021/06/24 00:42:45;;;;;;;30.70;28.38;;;;;;;18.72;73.00;93832.81;5069688;28;20044;-48
2021/06/24 00:45:13;;;;;;;31.63;28.88;;;;;;;18.86;72.39;93828.94;5069457;28;20166;-50
2021/06/24 00:47:39;;;;;;;30.23;27.45;;;;;;;18.72;72.20;93825.16;5069425;28;20020;-55
2021/06/24 00:50:06;;;;;;;31.35;28.58;;;;;;;18.64;72.35;93818.28;5073833;28;20419;-53
2021/06/24 00:52:31;;;;;;;28.85;26.25;;;;;;;18.73;72.00;93825.91;5089633;28;20415;-53
2021/06/24 00:54:57;;;;;;;28.27;25.45;;;;;;;18.79;71.73;93824.28;5089145;28;20040;-52
2021/06/24 00:57:24;;;;;;;28.85;23.40;;;;;;;18.80;71.57;93833.38;5088623;28;20051;-51
2021/06/24 00:59:49;;;;;;;27.55;24.75;;;;;;;18.64;71.51;93833.00;5089512;28;20491;-54
2021/06/24 01:02:15;;;;;;;30.55;27.38;;;;;;;18.75;71.57;93834.44;5089488;28;20028;-53
2021/06/24 01:04:40;;;;;;;25.70;23.17;;;;;;;18.81;71.21;93832.06;5088595;28;20415;-47
2021/06/24 01:07:06;;;;;;;25.63;23.20;;;;;;;18.73;71.53;93842.69;5078376;28;20032;-47
2021/06/24 01:09:35;;;;;;;22.02;19.83;;;;;;;18.81;71.17;93846.78;5069126;28;20033;-46
2021/06/24 01:12:05;;;;;;;20.63;16.50;;;;;;;18.78;70.33;93847.22;5069170;28;20032;-46
2021/06/24 01:14:30;;;;;;;22.88;17.42;;;;;;;18.72;70.45;93844.00;5067976;28;20483;-49
2021/06/24 01:16:56;;;;;;;26.95;21.00;;;;;;;18.64;70.76;93843.44;5069463;28;20162;-49
2021/06/24 01:19:21;;;;;;;23.50;21.13;;;;;;;18.66;71.25;93840.78;5069127;28;20489;-48
2021/06/24 01:21:47;;;;;;;27.83;25.63;;;;;;;18.49;72.10;93840.97;5068831;28;20076;-50
2021/06/24 01:24:14;;;;;;;26.35;23.85;;;;;;;18.44;72.24;93836.38;5069396;28;20033;-48
2021/06/24 01:26:41;;;;;;;26.02;24.17;;;;;;;18.44;71.90;93828.78;5069134;28;20028;-48
2021/06/24 01:29:08;;;;;;;25.63;23.15;;;;;;;18.41;72.27;93824.31;5069264;28;20042;-48
2021/06/24 01:31:33;;;;;;;30.48;27.30;;;;;;;18.41;72.19;93820.81;5071052;28;20024;-50
2021/06/24 01:34:00;;;;;;;30.50;27.67;;;;;;;18.46;72.81;93830.97;5072993;28;20024;-49
2021/06/24 01:36:27;;;;;;;25.55;23.33;;;;;;;18.39;72.83;93826.97;5072253;28;20032;-48
2021/06/24 01:38:53;;;;;;;25.00;22.55;;;;;;;18.09;71.95;93814.38;5072575;28;20413;-48
2021/06/24 01:41:18;;;;;;;25.67;22.35;;;;;;;18.37;71.37;93826.84;5071600;28;20024;-46
2021/06/24 01:43:45;;;;;;;27.67;25.00;;;;;;;18.15;72.34;93831.56;5073169;28;20020;-46
2021/06/24 01:46:11;;;;;;;26.25;23.92;;;;;;;18.26;72.28;93819.06;5075999;28;20062;-48
2021/06/24 01:48:39;;;;;;;28.77;25.90;;;;;;;18.36;71.89;93827.44;5093064;28;20060;-46
2021/06/24 01:51:05;;;;;;;27.83;24.67;;;;;;;18.19;72.33;93834.66;5092975;28;20024;-46
2021/06/24 01:53:30;;;;;;;29.48;25.30;;;;;;;18.02;72.81;93831.28;5089931;28;20028;-46
2021/06/24 01:55:56;;;;;;;30.13;27.02;;;;;;;17.83;74.05;93828.47;5072809;28;20555;-46
2021/06/24 01:58:24;;;;;;;29.67;25.85;;;;;;;17.75;74.51;93833.50;5072854;28;20116;-46
2021/06/24 02:00:51;;;;;;;31.27;24.13;;;;;;;17.70;74.30;93828.91;5071694;28;20016;-47
2021/06/24 02:03:18;;;;;;;25.73;23.20;;;;;;;17.87;73.72;93832.31;5072619;28;20036;-46
2021/06/24 02:05:44;;;;;;;26.05;22.88;;;;;;;17.96;74.05;93826.00;5072714;28;20032;-46
2021/06/24 02:08:15;;;;;;;24.05;21.42;;;;;;;18.00;73.71;93831.88;5071072;28;20518;-47
2021/06/24 02:10:41;;;;;;;25.45;22.73;;;;;;;17.82;73.65;93808.19;5072664;28;20108;-46
2021/06/24 02:13:07;;;;;;;26.60;24.42;;;;;;;18.03;73.57;93827.91;5072625;28;20412;-49
2021/06/24 02:15:32;;;;;;;26.08;23.58;;;;;;;18.13;73.10;93833.47;5071847;28;20016;-48
2021/06/24 02:17:58;;;;;;;25.80;23.40;;;;;;;17.99;73.16;93827.63;5077363;28;20024;-48
2021/06/24 02:20:23;;;;;;;26.52;23.85;;;;;;;18.05;72.37;93825.25;5092303;28;20543;-47
2021/06/24 02:22:49;;;;;;;28.05;23.13;;;;;;;18.05;72.04;93828.06;5092416;28;20031;-46
2021/06/24 02:25:15;;;;;;;24.25;21.92;;;;;;;18.07;71.87;93830.25;5092325;28;20024;-48
2021/06/24 02:27:41;;;;;;;23.73;21.27;;;;;;;17.98;72.07;93831.72;5092595;28;20081;-48
2021/06/24 02:30:08;;;;;;;28.13;25.38;;;;;;;17.67;72.33;93814.06;5092374;28;20111;-48
2021/06/24 02:32:34;;;;;;;26.42;23.75;;;;;;;17.67;73.17;93830.81;5091829;28;20524;-47
2021/06/24 02:35:00;;;;;;;27.77;24.85;;;;;;;17.73;72.82;93830.53;5092207;28;20055;-46
2021/06/24 02:37:25;;;;;;;25.55;23.30;;;;;;;17.72;72.84;93820.69;5092414;28;20031;-48
2021/06/24 02:39:51;;;;;;;24.77;22.75;;;;;;;17.82;72.95;93824.94;5092299;28;20392;-47
2021/06/24 02:42:16;;;;;;;21.95;16.95;;;;;;;17.86;71.72;93832.91;5088688;28;20024;-46
2021/06/24 02:44:42;;;;;;;22.40;20.20;;;;;;;17.70;72.08;93829.66;5071791;28;20456;-47
2021/06/24 02:47:08;;;;;;;31.10;22.08;;;;;;;17.61;72.00;93810.84;5071970;28;20020;-46
2021/06/24 02:49:34;;;;;;;29.83;22.17;;;;;;;17.65;72.04;93827.16;5071896;28;20032;-45
2021/06/24 02:51:59;;;;;;;24.02;20.92;;;;;;;17.67;72.13;93833.63;5071812;28;20024;-45
2021/06/24 02:54:25;;;;;;;25.88;23.20;;;;;;;17.34;73.56;93832.53;5070367;28;20020;-45
2021/06/24 02:56:50;;;;;;;25.70;23.25;;;;;;;17.52;73.41;93824.81;5070819;28;20056;-45
2021/06/24 02:59:16;;;;;;;26.75;24.23;;;;;;;17.61;73.13;93813.63;5071383;28;20032;-45
2021/06/24 03:01:41;;;;;;;26.75;23.10;;;;;;;17.47;73.59;93826.53;5071409;28;20024;-47
2021/06/24 03:04:07;;;;;;;25.00;22.50;;;;;;;17.30;73.62;93818.25;5071582;28;20027;-46
2021/06/24 03:06:36;;;;;;;33.35;22.27;;;;;;;17.50;73.17;93830.22;5071133;28;20035;-44
2021/06/24 03:09:04;;;;;;;26.85;23.50;;;;;;;17.46;73.77;93830.63;5071596;28;20035;-44
2021/06/24 03:11:29;;;;;;;23.75;21.52;;;;;;;17.30;73.88;93841.31;5071532;28;20106;-44
2021/06/24 03:13:55;;;;;;;26.17;23.90;;;;;;;17.17;75.13;93827.75;5071410;28;20489;-45
2021/06/24 03:16:20;;;;;;;24.88;22.42;;;;;;;17.34;74.23;93835.31;5071126;28;20492;-44
2021/06/24 03:18:49;;;;;;;24.98;22.15;;;;;;;17.41;73.94;93831.66;5083845;28;20030;-46
2021/06/24 03:21:15;;;;;;;24.27;21.65;;;;;;;17.42;74.38;93824.75;5090932;28;20509;-46
2021/06/24 03:23:40;;;;;;;25.95;23.75;;;;;;;17.47;74.58;93825.78;5091157;28;20081;-46
2021/06/24 03:26:06;;;;;;;24.25;21.88;;;;;;;17.58;73.91;93842.75;5091421;28;20032;-46
2021/06/24 03:28:31;;;;;;;22.75;20.35;;;;;;;17.42;73.70;93841.50;5091466;28;20709;-46
2021/06/24 03:30:57;;;;;;;24.00;21.80;;;;;;;17.48;73.16;93844.00;5091281;28;20485;-45
2021/06/24 03:33:22;;;;;;;24.02;22.05;;;;;;;17.55;72.70;93851.53;5091736;28;20028;-45
2021/06/24 03:35:50;;;;;;;168.02;151.55;;;;;;;17.46;73.31;93850.16;5099862;28;20466;-45
2021/06/24 03:38:16;;;;;;;27.70;21.65;;;;;;;17.64;73.22;93861.97;5090101;28;20028;-47
2021/06/24 03:40:42;;;;;;;109.22;101.60;;;;;;;17.65;72.74;93857.88;5069804;28;20082;-46
2021/06/24 03:43:07;;;;;;;26.20;23.80;;;;;;;17.73;72.64;93856.44;5069536;28;20036;-46
2021/06/24 03:45:33;;;;;;;201.23;181.45;;;;;;;17.74;72.53;93852.28;5069422;28;20028;-46
2021/06/24 03:47:58;;;;;;;139.85;127.28;;;;;;;17.61;73.62;93858.31;5069665;28;20025;-45
2021/06/24 03:50:24;;;;;;;25.45;23.27;;;;;;;17.58;73.98;93858.75;5069248;28;20028;-46
2021/06/24 03:52:50;;;;;;;26.52;23.95;;;;;;;17.70;73.95;93856.84;5070218;28;20086;-46
2021/06/24 03:55:17;;;;;;;25.17;22.65;;;;;;;17.49;74.23;93835.03;5068959;28;20055;-46
2021/06/24 03:57:43;;;;;;;26.48;23.95;;;;;;;17.77;73.26;93844.81;5070487;28;20082;-46
2021/06/24 04:00:09;;;;;;;24.92;22.35;;;;;;;17.69;73.71;93856.13;5070440;28;20150;-51
2021/06/24 04:02:35;;;;;;;26.30;24.10;;;;;;;17.83;73.24;93853.63;5070377;28;20028;-47
2021/06/24 04:05:00;;;;;;;27.10;24.35;;;;;;;17.88;73.67;93842.19;5070304;28;20493;-47
2021/06/24 04:07:26;;;;;;;24.60;22.30;;;;;;;17.97;73.98;93840.72;5069953;28;20036;-46
2021/06/24 04:09:51;;;;;;;24.55;21.73;;;;;;;17.98;73.81;93839.38;5068358;28;20035;-49
2021/06/24 04:12:16;;;;;;;30.08;25.50;;;;;;;17.97;74.02;93826.75;5069355;28;20032;-50
2021/06/24 04:14:42;;;;;;;24.80;22.63;;;;;;;18.07;74.28;93819.81;5069847;28;20035;-51
2021/06/24 04:17:07;;;;;;;27.73;24.95;;;;;;;18.16;74.09;93819.09;5068827;28;20024;-48
2021/06/24 04:19:33;;;;;;;27.42;24.50;;;;;;;18.22;74.00;93823.63;5088630;28;20102;-47
2021/06/24 04:21:59;;;;;;;28.67;25.70;;;;;;;18.32;74.24;93821.56;5089607;28;20070;-47
2021/06/24 04:24:24;;;;;;;29.90;26.35;;;;;;;18.39;74.29;93824.19;5090287;28;20020;-48
2021/06/24 04:26:50;;;;;;;30.25;27.35;;;;;;;18.35;74.50;93825.94;5090028;28;20496;-51
2021/06/24 04:29:15;;;;;;;38.35;29.83;;;;;;;18.35;74.92;93825.94;5090106;28;20081;-51
2021/06/24 04:31:41;;;;;;;33.47;28.77;;;;;;;18.34;75.90;93825.25;5095315;28;20027;-47
2021/06/24 04:34:06;;;;;;;35.22;31.88;;;;;;;18.41;75.98;93832.72;5109979;28;20047;-50
2021/06/24 04:36:32;;;;;;;41.05;34.97;;;;;;;18.52;76.13;93817.41;5093415;28;20093;-48
2021/06/24 04:38:58;;;;;;;38.63;34.97;;;;;;;18.62;76.39;93818.13;5090239;28;20085;-46
2021/06/24 04:41:24;;;;;;;41.17;37.40;;;;;;;18.59;76.40;93822.84;5089833;28;20078;-46
2021/06/24 04:43:49;;;;;;;45.65;41.92;;;;;;;18.59;77.39;93820.06;5089788;28;20096;-46
2021/06/24 04:46:15;;;;;;;57.85;53.53;;;;;;;18.68;77.74;93824.16;5089142;28;20541;-44
2021/06/24 04:48:40;;;;;;;65.57;60.55;;;;;;;18.88;77.81;93815.09;5090014;28;20115;-45
2021/06/24 04:51:06;;;;;;;58.75;54.58;;;;;;;18.79;77.87;93789.97;5089991;28;20473;-45
2021/06/24 04:53:31;;;;;;;47.95;44.80;;;;;;;18.99;78.03;93813.75;5086590;28;20131;-45
2021/06/24 04:55:57;;;;;;;60.10;54.85;;;;;;;19.00;77.81;93814.47;5069152;28;20077;-45
2021/06/24 04:58:23;;;;;;;54.75;50.63;;;;;;;19.22;77.76;93825.13;5069630;28;20119;-46
2021/06/24 05:00:48;;;;;;;56.05;51.33;;;;;;;19.31;77.99;93823.59;5069076;28;20035;-45
2021/06/24 05:03:14;;;;;;;52.17;47.75;;;;;;;19.45;78.18;93827.38;5068928;28;20028;-44
2021/06/24 05:05:41;;;;;;;57.03;52.78;;;;;;;19.47;77.66;93821.91;5069184;28;20025;-45
2021/06/24 05:08:12;;;;;;;59.45;54.50;;;;;;;19.53;78.19;93819.53;5069042;28;20067;-44
2021/06/24 05:10:37;;;;;;;45.03;41.35;;;;;;;19.60;78.35;93827.72;5069002;28;20024;-46
2021/06/24 05:13:03;;;;;;;55.13;50.85;;;;;;;19.73;77.79;93837.66;5085864;28;20031;-45
2021/06/24 05:15:29;;;;;;;60.28;55.78;;;;;;;19.84;78.42;93830.69;5089419;28;20044;-45
2021/06/24 05:17:54;;;;;;;60.03;54.85;;;;;;;19.88;79.08;93834.47;5083998;28;20097;-44
2021/06/24 05:20:20;;;;;;;59.30;54.15;;;;;;;19.91;78.14;93835.31;5066542;28;20036;-46
2021/06/24 05:22:46;;;;;;;51.85;47.47;;;;;;;20.04;78.65;93841.13;5068829;28;20032;-45
2021/06/24 05:25:12;;;;;;;58.53;53.60;;;;;;;20.13;78.90;93842.38;5069251;28;20043;-46
2021/06/24 05:27:37;;;;;;;66.15;61.50;;;;;;;20.22;79.41;93833.19;5069041;28;20030;-44
2021/06/24 05:30:04;;;;;;;75.00;69.15;;;;;;;20.28;79.44;93839.19;5069109;28;20638;-45
2021/06/24 05:32:29;;;;;;;59.70;55.10;;;;;;;20.37;79.39;93841.91;5082990;28;20405;-48
2021/06/24 05:34:55;;;;;;;70.80;65.15;;;;;;;20.45;79.84;93838.88;5089165;28;20038;-48
2021/06/24 05:37:20;;;;;;;52.72;47.70;;;;;;;20.50;79.14;93835.00;5089209;28;20492;-44
2021/06/24 05:39:46;;;;;;;51.47;47.28;;;;;;;20.54;79.25;93838.06;5089125;28;20758;-45
2021/06/24 05:42:11;;;;;;;47.92;43.10;;;;;;;20.64;78.99;93835.16;5089249;28;20420;-44
2021/06/24 05:44:37;;;;;;;45.60;41.13;;;;;;;20.75;78.87;93828.84;5088709;28;20038;-46
2021/06/24 05:47:03;;;;;;;42.05;37.85;;;;;;;20.82;78.73;93834.22;5088486;28;20028;-49
2021/06/24 05:49:29;;;;;;;49.97;45.50;;;;;;;20.97;79.12;93827.41;5079795;28;20031;-47
2021/06/24 05:51:55;;;;;;;39.40;35.75;;;;;;;21.07;78.42;93831.59;5075742;28;20500;-45
2021/06/24 05:54:21;;;;;;;39.47;35.80;;;;;;;21.11;78.54;93823.41;5067317;28;20113;-48
2021/06/24 05:56:46;;;;;;;38.95;26.58;;;;;;;21.13;77.50;93822.81;5068814;28;20419;-47
2021/06/24 05:59:12;;;;;;;31.15;28.20;;;;;;;21.17;77.11;93819.53;5069011;28;20120;-47
2021/06/24 06:01:42;;;;;;;32.83;29.25;;;;;;;21.34;76.69;93830.38;5067368;28;20082;-46
2021/06/24 06:04:07;;;;;;;35.00;23.27;;;;;;;21.40;76.05;93836.34;5067227;28;20490;-48
2021/06/24 06:06:33;;;;;;;29.15;22.75;;;;;;;21.62;75.15;93834.88;5085769;28;20022;-45
2021/06/24 06:08:58;;;;;;;31.63;28.58;;;;;;;21.72;76.71;93832.69;5072744;28;20112;-44
2021/06/24 06:11:24;;;;;;;36.28;30.13;;;;;;;21.78;76.24;93828.16;5073446;28;20086;-46
2021/06/24 06:13:49;;;;;;;26.85;22.75;;;;;;;21.84;76.10;93824.97;5092632;28;20019;-45
2021/06/24 06:16:15;;;;;;;37.95;21.27;;;;;;;21.93;75.87;93826.19;5108202;28;20028;-44
2021/06/24 06:18:40;;;;;;;31.38;21.65;;;;;;;22.01;75.82;93823.81;5078290;28;20520;-44
2021/06/24 06:21:06;;;;;;;31.13;18.08;;;;;;;22.11;74.36;93824.44;5073606;28;20045;-45
2021/06/24 06:23:31;;;;;;;37.38;18.33;;;;;;;22.29;72.95;93828.25;5071474;28;20090;-46
2021/06/24 06:25:57;;;;;;;36.85;19.65;;;;;;;22.32;73.37;93835.47;5070763;28;20025;-44
2021/06/24 06:28:25;;;;;;;28.63;17.80;;;;;;;22.34;73.86;93824.34;5081925;28;20032;-44
2021/06/24 06:30:51;;;;;;;25.58;18.00;;;;;;;22.47;73.34;93835.66;5090786;28;20104;-44
2021/06/24 06:33:18;;;;;;;36.85;17.88;;;;;;;22.56;73.40;93828.41;5091358;28;20478;-45
2021/06/24 06:35:44;;;;;;;31.65;17.50;;;;;;;22.69;73.09;93829.81;5090274;28;20028;-46
2021/06/24 06:38:10;;;;;;;23.50;14.73;;;;;;;22.83;73.28;93842.59;5089891;28;20024;-46
2021/06/24 06:40:36;;;;;;;28.83;15.05;;;;;;;23.00;72.09;93830.84;5090568;28;20032;-49
2021/06/24 06:43:01;;;;;;;25.90;13.00;;;;;;;23.22;69.79;93823.59;5090145;28;20035;-47
2021/06/24 06:45:28;;;;;;;26.23;15.52;;;;;;;23.37;69.96;93838.47;5090106;28;20031;-45
2021/06/24 06:47:54;;;;;;;31.00;16.08;;;;;;;23.43;70.41;93835.97;5090540;28;20036;-50
2021/06/24 06:50:20;;;;;;;30.88;12.50;;;;;;;23.55;67.19;93834.50;5090650;28;20056;-47
2021/06/24 06:52:45;;;;;;;22.98;12.60;;;;;;;23.60;67.34;93835.47;5090572;28;20047;-46
2021/06/24 06:55:12;;;;;;;35.42;13.82;;;;;;;23.61;67.37;93839.72;5073073;28;20482;-46
2021/06/24 06:57:37;;;;;;;28.73;11.90;;;;;;;23.68;66.67;93833.78;5070219;28;20025;-47
2021/06/24 07:00:08;;;;;;;29.48;13.88;;;;;;;23.78;67.86;93833.59;5070162;28;20412;-46
2021/06/24 07:02:33;;;;;;;35.72;22.60;;;;;;;23.83;66.57;93833.16;5079325;28;20039;-47
2021/06/24 07:04:58;;;;;;;32.80;14.40;;;;;;;23.88;68.18;93834.81;5070352;28;20033;-46
2021/06/24 07:07:24;;;;;;;25.83;12.55;;;;;;;24.03;67.81;93833.44;5068439;28;20027;-45
2021/06/24 07:09:50;;;;;;;34.00;25.48;;;;;;;24.21;66.12;93836.47;5068118;28;20077;-48
2021/06/24 07:12:15;;;;;;;25.20;13.77;;;;;;;24.27;68.45;93833.94;5067682;28;20520;-46
2021/06/24 07:14:41;;;;;;;25.65;13.38;;;;;;;24.37;69.90;93831.59;5097273;28;20110;-47
2021/06/24 07:17:06;;;;;;;27.05;12.18;;;;;;;24.47;67.53;93832.13;5108516;28;20036;-45
2021/06/24 07:19:32;;;;;;;25.23;11.77;;;;;;;24.53;67.17;93827.50;5086942;28;20040;-45
2021/06/24 07:21:57;;;;;;;26.38;10.68;;;;;;;24.70;66.29;93834.63;5088329;28;20051;-47
2021/06/24 07:24:23;;;;;;;27.88;10.75;;;;;;;24.86;66.81;93832.63;5079023;28;20036;-46
2021/06/24 07:26:48;;;;;;;26.02;10.95;;;;;;;25.19;65.16;93827.09;5067400;28;20035;-49
2021/06/24 07:29:14;;;;;;;29.05;9.13;;;;;;;25.39;62.48;93832.94;5066774;28;20024;-46
2021/06/24 07:31:40;;;;;;;31.40;10.40;;;;;;;25.68;63.43;93830.03;5067031;28;20032;-46
2021/06/24 07:34:05;;;;;;;25.83;10.35;;;;;;;26.14;62.91;93832.06;5067099;28;20024;-47
2021/06/24 07:36:31;;;;;;;27.05;9.20;;;;;;;26.69;59.68;93837.13;5066242;28;20098;-47
2021/06/24 07:38:56;;;;;;;16.73;7.55;;;;;;;27.23;57.33;93827.97;5067407;28;20024;-48
2021/06/24 07:41:24;;;;;;;24.17;8.48;;;;;;;27.89;56.25;93826.91;5070326;28;20016;-46
2021/06/24 07:43:51;;;;;;;25.00;8.15;;;;;;;28.52;52.35;93829.81;5069929;28;20029;-45
2021/06/24 07:46:16;;;;;;;23.73;7.85;;;;;;;29.08;50.92;93831.66;5084390;28;20023;-46
2021/06/24 07:48:41;;;;;;;23.48;7.53;;;;;;;29.62;49.63;93826.91;5102336;28;20035;-48
2021/06/24 07:51:07;;;;;;;24.42;8.35;;;;;;;30.44;49.81;93828.50;5107893;28;20106;-46
2021/06/24 07:53:32;;;;;;;21.58;6.88;;;;;;;31.32;46.90;93829.94;5104159;28;20473;-48
2021/06/24 07:55:58;;;;;;;23.13;7.15;;;;;;;31.93;43.83;93822.69;5092618;28;20066;-45
2021/06/24 07:58:23;;;;;;;22.00;7.25;;;;;;;32.56;43.21;93839.69;5107223;28;20019;-46
2021/06/24 08:00:49;;;;;;;19.15;7.32;;;;;;;33.33;41.27;93835.25;5107380;28;20104;-47
2021/06/24 08:03:14;;;;;;;17.95;6.82;;;;;;;33.74;38.36;93836.56;5083388;28;20021;-47
2021/06/24 08:05:41;;;;;;;20.77;7.50;;;;;;;33.96;39.72;93836.88;5079572;28;20024;-48
2021/06/24 08:08:06;;;;;;;23.77;7.65;;;;;;;34.55;39.23;93835.41;5074316;28;20028;-47
2021/06/24 08:10:32;;;;;;;19.55;6.47;;;;;;;35.06;36.89;93831.63;5073198;28;20020;-47
2021/06/24 08:12:58;;;;;;;17.30;6.50;;;;;;;34.97;35.70;93835.84;5073488;28;20036;-46
2021/06/24 08:15:26;;;;;;;23.10;6.68;;;;;;;34.73;36.51;93830.59;5078162;28;20020;-47
2021/06/24 08:17:52;;;;;;;22.25;5.93;;;;;;;34.79;36.38;93827.06;5074875;28;20016;-47
2021/06/24 08:20:18;;;;;;;15.38;5.43;;;;;;;33.98;34.89;93823.28;5075499;28;20127;-47
2021/06/24 08:22:44;;;;;;;14.00;5.28;;;;;;;33.90;35.57;93814.59;5074390;28;20020;-46
2021/06/24 08:25:10;;;;;;;16.17;4.97;;;;;;;34.03;36.63;93819.06;5076156;28;20154;-47
2021/06/24 08:27:36;;;;;;;17.48;5.45;;;;;;;34.09;36.36;93824.16;5076133;28;20030;-46
2021/06/24 08:30:04;;;;;;;20.08;6.45;;;;;;;34.46;35.03;93828.84;5074851;28;20027;-45
2021/06/24 08:32:29;;;;;;;24.60;6.47;;;;;;;34.92;35.01;93835.06;5077045;28;20055;-46
2021/06/24 08:34:54;;;;;;;21.20;6.68;;;;;;;35.59;34.03;93838.50;5075815;28;20545;-46
2021/06/24 08:37:20;;;;;;;27.08;6.97;;;;;;;35.48;32.70;93840.56;5074730;28;20050;-49
2021/06/24 08:39:48;;;;;;;18.27;5.97;;;;;;;35.52;32.47;93843.47;5076335;28;20217;-47
2021/06/24 08:42:17;;;;;;;23.58;5.28;;;;;;;35.74;31.71;93834.25;5074220;28;20021;-47
2021/06/24 08:44:44;;;;;;;13.45;5.30;;;;;;;36.81;33.17;93835.41;5074347;28;20040;-46
2021/06/24 08:47:12;;;;;;;19.98;5.15;;;;;;;37.39;29.51;93831.16;5075798;28;20016;-46
2021/06/24 08:49:38;;;;;;;16.13;5.55;;;;;;;37.34;30.59;93827.53;5074957;28;20090;-50
2021/06/24 08:52:03;;;;;;;16.63;5.55;;;;;;;37.79;30.56;93828.22;5073329;28;20028;-46
2021/06/24 08:54:29;;;;;;;18.48;5.53;;;;;;;38.27;29.61;93828.09;5075178;28;20025;-49
2021/06/24 08:56:54;;;;;;;18.08;5.00;;;;;;;38.41;28.10;93815.78;5074656;28;20040;-46
2021/06/24 08:59:20;;;;;;;18.55;4.90;;;;;;;38.36;26.79;93825.88;5075388;28;20024;-47
2021/06/24 09:01:59;;;;;;;18.92;4.72;;;;;;;38.70;29.42;93840.19;5076187;28;20019;-46
2021/06/24 09:04:26;;;;;;;16.83;5.20;;;;;;;38.75;28.09;93837.97;5075787;28;20020;-48
2021/06/24 09:06:52;;;;;;;16.45;4.88;;;;;;;38.50;26.35;93840.25;5075248;28;20024;-46
2021/06/24 09:09:32;;;;;;;19.20;6.07;;;;;;;38.88;27.45;93836.47;5072816;28;20027;-45
2021/06/24 09:12:05;;;;;;;19.83;4.75;;;;;;;39.29;25.92;93841.19;5074896;28;20036;-45
2021/06/24 09:14:41;;;;;;;16.88;5.32;;;;;;;38.80;27.77;93833.59;5074201;28;20036;-47
2021/06/24 09:17:08;;;;;;;19.48;4.70;;;;;;;37.52;28.36;93838.34;5077697;28;20028;-48
2021/06/24 09:19:33;;;;;;;18.92;5.07;;;;;;;36.26;31.25;93822.31;5072155;28;20077;-48
2021/06/24 09:22:08;;;;;;;20.40;4.95;;;;;;;35.70;31.74;93837.84;5085344;28;20044;-46
2021/06/24 09:24:37;;;;;;;21.05;5.53;;;;;;;35.03;32.90;93841.66;5085949;28;20648;-46
2021/06/24 09:27:23;;;;;;;20.83;6.38;;;;;;;35.26;33.83;93843.25;5076029;28;20032;-48
2021/06/24 09:30:10;;;;;;;18.33;5.88;;;;;;;36.06;32.93;93836.63;5074821;28;20021;-47
2021/06/24 09:32:46;;;;;;;23.48;5.20;;;;;;;36.79;30.78;93838.31;5075378;28;20075;-47
2021/06/24 09:35:24;;;;;;;12.35;4.57;;;;;;;37.53;29.36;93834.03;5075688;28;20037;-46
2021/06/24 09:38:02;;;;;;;15.98;4.40;;;;;;;38.12;25.26;93828.88;5070875;28;20046;-47
2021/06/24 09:40:44;;;;;;;12.57;4.80;;;;;;;38.40;28.02;93831.66;5073676;28;20081;-51
2021/06/24 09:43:35;;;;;;;18.27;4.70;;;;;;;38.59;27.07;93830.09;5073724;28;20043;-48
2021/06/24 09:46:15;;;;;;;14.50;4.35;;;;;;;39.43;24.66;93823.03;5077247;28;20027;-48
2021/06/24 09:48:49;;;;;;;12.40;4.32;;;;;;;38.28;25.04;93820.16;5079996;28;20035;-49
2021/06/24 09:51:22;;;;;;;19.10;4.95;;;;;;;38.25;26.29;93824.50;5076281;28;20031;-49
2021/06/24 09:54:03;;;;;;;17.67;4.95;;;;;;;38.95;27.79;93817.63;5079259;28;20032;-48
2021/06/24 09:56:56;;;;;;;14.50;4.40;;;;;;;39.41;26.54;93823.06;5080072;28;20096;-50
2021/06/24 09:59:31;;;;;;;15.57;3.95;;;;;;;40.04;24.86;93820.28;5079779;28;20040;-49
2021/06/24 10:01:56;;;;;;;15.90;4.97;;;;;;;38.98;24.00;93807.50;5079215;28;20024;-48
2021/06/24 10:04:31;;;;;;;25.70;5.93;;;;;;;39.34;26.08;93818.78;5081345;28;21099;-46
2021/06/24 10:06:59;;;;;;;23.55;5.20;;;;;;;39.54;25.93;93804.16;5080805;28;20036;-47
2021/06/24 10:09:26;;;;;;;10.90;4.00;;;;;;;40.03;25.85;93810.91;5081264;28;20413;-47
2021/06/24 10:11:52;;;;;;;14.90;4.10;;;;;;;39.94;24.35;93808.78;5079718;28;20024;-46
2021/06/24 10:14:20;;;;;;;12.43;4.10;;;;;;;40.11;23.85;93805.00;5081643;28;20069;-48
2021/06/24 10:16:48;;;;;;;;;;;;;;;40.13;24.63;93795.59;5079410;28;20028;-48
2021/06/24 10:19:15;;;;;;;10.93;3.63;;;;;;;40.05;25.17;93787.72;5078421;28;20308;-47
2021/06/24 10:21:41;;;;;;;12.80;3.90;;;;;;;39.88;22.99;93789.34;5079095;28;20096;-47
2021/06/24 10:24:11;;;;;;;13.90;4.25;;;;;;;39.75;24.34;93787.31;5079593;28;20027;-47
2021/06/24 10:26:43;;;;;;;21.98;4.95;;;;;;;40.17;24.24;93771.69;5080357;28;20063;-46
2021/06/24 10:29:15;;;;;;;15.43;4.10;;;;;;;40.52;23.48;93790.06;5054816;28;20044;-48
2021/06/24 10:31:50;;;;;;;25.27;5.10;;;;;;;40.53;21.08;93779.91;5079005;28;20493;-49
2021/06/24 10:34:16;;;;;;;12.32;3.95;;;;;;;40.95;20.83;93790.88;5080194;28;20128;-48
2021/06/24 10:37:11;;;;;;;11.48;3.45;;;;;;;41.12;19.76;93797.13;5079093;28;20765;-47
2021/06/24 10:39:37;;;;;;;13.25;3.10;;;;;;;40.27;19.90;93780.94;5089438;28;20036;-47
2021/06/24 10:42:15;;;;;;;11.43;3.63;;;;;;;40.17;20.84;93794.81;5082831;28;20038;-46
2021/06/24 10:44:46;;;;;;;12.57;3.42;;;;;;;40.40;20.55;93787.28;5083547;28;20466;-47
2021/06/24 10:47:12;;;;;;;12.38;3.03;;;;;;;40.65;20.20;93794.91;5080278;28;20040;-47
2021/06/24 10:49:38;;;;;;;11.65;3.65;;;;;;;40.86;19.55;93788.84;5083601;28;20511;-47
2021/06/24 10:52:26;;;;;;;10.00;3.55;;;;;;;40.79;21.23;93776.63;5078028;28;20032;-46
2021/06/24 10:54:56;;;;;;;16.30;4.10;;;;;;;41.08;21.53;93783.44;5078471;28;20501;-46
2021/06/24 10:57:36;;;;;;;16.17;4.22;;;;;;;40.73;22.07;93788.28;5081422;28;20433;-46
2021/06/24 11:00:29;;;;;;;19.83;3.83;;;;;;;40.18;21.46;93778.91;5077666;28;20491;-49
2021/06/24 11:02:55;;;;;;;12.98;3.60;;;;;;;39.91;21.88;93793.66;5078058;28;20036;-46
2021/06/24 11:05:21;;;;;;;16.67;4.28;;;;;;;39.47;23.28;93788.31;5076911;28;20433;-45
2021/06/24 11:07:49;;;;;;;16.35;4.15;;;;;;;39.07;22.63;93788.66;5077749;28;20043;-46
2021/06/24 11:10:22;;;;;;;;;;;;;;;38.74;24.54;93787.47;5078906;28;20082;-45
2021/06/24 11:12:58;;;;;;;17.42;3.67;;;;;;;38.34;24.32;93780.47;5077601;28;19916;-49
2021/06/24 11:15:43;;;;;;;18.65;4.88;;;;;;;37.91;24.65;93771.28;5081189;28;20024;-47
2021/06/24 11:18:08;;;;;;;14.48;3.80;;;;;;;37.59;25.08;93780.00;5077652;28;20047;-45
2021/06/24 11:20:43;;;;;;;15.40;4.57;;;;;;;37.18;25.62;93784.34;5079012;28;20483;-46